KUMP/UMP METAR and TAF weather

Enter ICAO airport designator
Station Type Date Time Source
KUMP METAR 2023/02/05 22:55 UTC NOAA

KUMP 052255Z AUTO 00000KT 10SM CLR 09/02 A2997 RMK AO2 T00890021


Station Type Date Time Source
KUMP Decoded METAR 2023/02/05 22:55 UTC NOAA

Station name not available
Feb 05, 2023 - 05:55 PM EST / 2023.02.05 2255 UTC
Wind: Calm:0
Visibility: 10 mile(s):0
Sky conditions: clear
Temperature: 48.0 F (8.9 C)
Dew Point: 35.8 F (2.1 C)
Relative Humidity: 62%
Pressure (altimeter): 29.97 in. Hg (1014 hPa)
ob: KUMP 052255Z AUTO 00000KT 10SM CLR 09/02 A2997 RMK AO2 T00890021
cycle: 23

Station Type Date Time Source
KUMP TAF UTC NOAA

Error!

Example: see airport list